Time;durP1;ratioP1;P1;durP2;ratioP2;P2;SDS_P1;SDS_P2;PMS_P1;PMS_P2;Temp;Humidity;BMP_temperature;BMP_pressure;BME280_temperature;BME280_humidity;BME280_pressure;Samples;Min_cycle;Max_cycle;Signal;HPM_P1;HPM_P2
2021/05/24 00:02:21;;;;;;;15.20;4.12;;;;;;;12.59;85.94;100870.95;1705654;84;20879;-38
2021/05/24 00:04:47;;;;;;;7.90;3.22;;;;;;;12.58;85.85;100861.45;1705835;84;20986;-37
2021/05/24 00:07:14;;;;;;;7.62;3.17;;;;;;;12.54;85.83;100865.01;1705754;84;20911;-38
2021/05/24 00:09:42;;;;;;;10.60;2.92;;;;;;;12.49;85.87;100866.81;1705691;84;21081;-38
2021/05/24 00:12:08;;;;;;;7.00;3.30;;;;;;;12.43;85.81;100859.16;1705868;84;20950;-38
2021/05/24 00:14:38;;;;;;;9.13;3.45;;;;;;;12.39;85.52;100856.21;1705811;84;21101;-38
2021/05/24 00:17:06;;;;;;;8.43;3.22;;;;;;;12.36;85.19;100855.39;1705653;84;21006;-38
2021/05/24 00:19:34;;;;;;;10.15;3.37;;;;;;;12.34;84.94;100845.91;1705715;83;21002;-38
2021/05/24 00:22:02;;;;;;;16.90;3.30;;;;;;;12.31;84.77;100841.65;1705917;84;21554;-38
2021/05/24 00:24:28;;;;;;;9.20;3.47;;;;;;;12.30;84.71;100846.43;1705891;84;20903;-38
2021/05/24 00:26:55;;;;;;;22.75;3.75;;;;;;;12.28;84.63;100851.23;1705823;84;21110;-37
2021/05/24 00:29:23;;;;;;;21.00;3.27;;;;;;;12.27;84.38;100843.90;1712904;82;21026;-38
2021/05/24 00:31:51;;;;;;;16.75;4.12;;;;;;;12.29;84.01;100834.34;1713515;83;20962;-38
2021/05/24 00:34:19;;;;;;;24.55;3.58;;;;;;;12.33;83.44;100833.81;1713715;83;21017;-38
2021/05/24 00:36:46;;;;;;;13.28;3.17;;;;;;;12.36;82.84;100837.64;1713726;83;21622;-38
2021/05/24 00:39:13;;;;;;;14.33;3.92;;;;;;;12.38;82.45;100829.84;1713671;83;21657;-38
2021/05/24 00:41:41;;;;;;;10.50;3.05;;;;;;;12.40;81.91;100828.06;1713526;83;21483;-38
2021/05/24 00:44:09;;;;;;;13.55;3.40;;;;;;;12.42;81.34;100828.89;1713655;83;20978;-37
2021/05/24 00:46:36;;;;;;;20.15;3.40;;;;;;;12.45;80.67;100836.61;1685106;83;21550;-38
2021/05/24 00:49:04;;;;;;;15.00;3.02;;;;;;;12.49;80.05;100847.34;1713644;83;21496;-37
2021/05/24 00:51:31;;;;;;;18.50;3.20;;;;;;;12.53;79.56;100845.55;1713620;83;21884;-37
2021/05/24 00:54:00;;;;;;;25.32;3.37;;;;;;;12.56;78.99;100848.95;1713466;82;21041;-38
2021/05/24 00:56:27;;;;;;;15.83;3.10;;;;;;;12.59;78.05;100850.61;1713774;83;20963;-37
2021/05/24 00:58:54;;;;;;;13.32;2.90;;;;;;;12.62;77.34;100844.92;1713562;83;20934;-37
2021/05/24 01:01:21;;;;;;;13.72;3.00;;;;;;;12.67;76.61;100843.53;1713675;83;21057;-38
2021/05/24 01:03:48;;;;;;;16.23;3.25;;;;;;;12.71;76.08;100841.70;1713659;83;21078;-38
2021/05/24 01:06:14;;;;;;;18.05;3.27;;;;;;;12.75;75.63;100838.16;1713634;83;20982;-38
2021/05/24 01:08:41;;;;;;;22.13;2.95;;;;;;;12.79;75.16;100832.03;1713733;83;21002;-38
2021/05/24 01:11:08;;;;;;;20.70;3.08;;;;;;;12.85;74.68;100831.02;1713728;83;20982;-37
2021/05/24 01:13:35;;;;;;;10.72;2.35;;;;;;;12.90;74.00;100827.44;1713760;83;20997;-37
2021/05/24 01:16:01;;;;;;;17.23;2.60;;;;;;;13.00;73.33;100822.02;1713747;83;21845;-38
2021/05/24 01:18:28;;;;;;;9.03;2.60;;;;;;;13.10;72.85;100817.47;1713750;83;21562;-38
2021/05/24 01:20:54;;;;;;;13.95;2.90;;;;;;;13.19;72.54;100816.81;1713888;83;21444;-38
2021/05/24 01:23:26;;;;;;;8.45;2.30;;;;;;;13.25;72.54;100814.53;1713693;83;21626;-38
2021/05/24 01:25:49;;;;;;;4.80;2.00;;;;;;;13.28;72.20;100810.55;1713028;83;20902;-38
2021/05/24 01:28:17;;;;;;;4.67;2.00;;;;;;;13.33;71.91;100819.09;1715619;82;21086;-38
2021/05/24 01:30:45;;;;;;;4.37;1.98;;;;;;;13.36;71.68;100812.97;1719376;83;21534;-38
2021/05/24 01:33:11;;;;;;;7.10;1.95;;;;;;;13.39;71.58;100810.29;1719453;83;21004;-37
2021/05/24 01:35:40;;;;;;;9.10;2.17;;;;;;;13.42;71.30;100815.41;1719317;82;21500;-37
2021/05/24 01:38:09;;;;;;;7.22;2.17;;;;;;;13.46;71.36;100810.57;1719448;83;21580;-38
2021/05/24 01:40:37;;;;;;;8.53;2.10;;;;;;;13.50;71.47;100812.66;1719373;83;21669;-38
2021/05/24 01:43:05;;;;;;;3.15;2.02;;;;;;;13.54;71.46;100814.28;1719251;83;20862;-37
2021/05/24 01:45:34;;;;;;;5.83;1.85;;;;;;;13.57;71.33;100814.67;1719457;83;21243;-38
2021/05/24 01:48:01;;;;;;;5.35;2.08;;;;;;;13.62;70.98;100811.03;1719297;83;21396;-37
2021/05/24 01:50:28;;;;;;;1.72;1.37;;;;;;;13.69;70.55;100805.70;1719466;83;20970;-37
2021/05/24 01:52:54;;;;;;;6.50;1.80;;;;;;;13.77;70.48;100800.70;1719439;83;21100;-37
2021/05/24 01:55:21;;;;;;;2.47;1.77;;;;;;;13.82;70.21;100801.03;1719244;83;20982;-37
2021/05/24 01:57:48;;;;;;;7.83;1.77;;;;;;;13.87;69.91;100801.75;1719496;83;21050;-37
2021/05/24 02:00:18;;;;;;;4.33;1.90;;;;;;;13.92;69.49;100802.48;1719333;83;21032;-37
2021/05/24 02:02:45;;;;;;;4.10;1.80;;;;;;;13.96;69.46;100800.66;1719389;83;20890;-37
2021/05/24 02:05:14;;;;;;;6.22;1.52;;;;;;;13.97;69.55;100787.59;1719443;82;21899;-37
2021/05/24 02:07:41;;;;;;;5.17;2.10;;;;;;;14.01;69.48;100773.59;1719219;82;20962;-37
2021/05/24 02:10:14;;;;;;;7.15;1.67;;;;;;;14.05;69.18;100773.06;1719401;83;21538;-37
2021/05/24 02:12:42;;;;;;;8.10;2.10;;;;;;;14.11;69.00;100770.28;1719312;83;21022;-39
2021/05/24 02:15:10;;;;;;;2.02;1.82;;;;;;;14.15;68.90;100763.25;1719350;83;21021;-38
2021/05/24 02:17:36;;;;;;;4.90;1.45;;;;;;;14.20;68.51;100766.58;1719423;83;21095;-38
2021/05/24 02:20:05;;;;;;;2.80;1.75;;;;;;;14.22;68.67;100768.25;1719414;83;21508;-38
2021/05/24 02:22:32;;;;;;;11.70;1.82;;;;;;;14.24;68.70;100770.79;1719432;83;20915;-38
2021/05/24 02:24:58;;;;;;;4.05;2.00;;;;;;;14.24;68.71;100772.09;1719249;82;20926;-38
2021/05/24 02:27:25;;;;;;;4.08;1.95;;;;;;;14.23;68.82;100769.09;1719449;83;20919;-38
2021/05/24 02:29:51;;;;;;;4.10;1.60;;;;;;;14.22;68.74;100765.64;1719420;82;21097;-38
2021/05/24 02:32:18;;;;;;;3.27;2.10;;;;;;;14.22;68.99;100764.77;1692624;83;21009;-38
2021/05/24 02:34:44;;;;;;;3.12;1.50;;;;;;;14.22;68.93;100779.09;1719435;83;20970;-38
2021/05/24 02:37:11;;;;;;;5.78;1.70;;;;;;;14.22;68.77;100783.00;1719327;83;20974;-38
2021/05/24 02:39:38;;;;;;;5.20;1.77;;;;;;;14.25;68.78;100776.40;1719396;83;20898;-38
2021/05/24 02:42:05;;;;;;;3.00;1.70;;;;;;;14.29;68.92;100774.14;1719393;83;21052;-38
2021/05/24 02:44:31;;;;;;;4.72;1.30;;;;;;;14.33;68.74;100774.45;1719479;83;21002;-36
2021/05/24 02:46:58;;;;;;;3.87;1.70;;;;;;;14.38;68.78;100769.09;1719365;83;21010;-36
2021/05/24 02:49:24;;;;;;;2.17;1.50;;;;;;;14.42;68.82;100760.31;1719338;83;20954;-36
2021/05/24 02:51:50;;;;;;;3.70;1.87;;;;;;;14.46;69.15;100755.41;1719270;83;20978;-36
2021/05/24 02:54:17;;;;;;;4.62;1.50;;;;;;;14.49;69.22;100755.74;1719268;83;21095;-36
2021/05/24 02:56:43;;;;;;;9.25;1.77;;;;;;;14.53;69.51;100751.31;1719362;83;20862;-36
2021/05/24 02:59:10;;;;;;;4.97;1.50;;;;;;;14.54;69.59;100760.39;1719407;83;21013;-36
2021/05/24 03:01:38;;;;;;;7.65;1.72;;;;;;;14.55;69.76;100752.11;1719252;83;20922;-37
2021/05/24 03:04:07;;;;;;;3.98;1.75;;;;;;;14.57;69.73;100751.61;1719440;83;21059;-36
2021/05/24 03:06:33;;;;;;;2.85;1.57;;;;;;;14.57;69.85;100751.61;1719396;82;21120;-36
2021/05/24 03:09:01;;;;;;;4.03;1.98;;;;;;;14.57;69.76;100755.09;1719194;82;20867;-36
2021/05/24 03:11:28;;;;;;;2.30;1.30;;;;;;;14.59;69.78;100753.28;1719261;82;21547;-36
2021/05/24 03:13:55;;;;;;;3.72;1.42;;;;;;;14.63;69.57;100750.12;1719271;83;21507;-37
2021/05/24 03:16:21;;;;;;;4.85;1.70;;;;;;;14.68;68.88;100746.08;1719344;83;21396;-37
2021/05/24 03:18:49;;;;;;;6.85;1.98;;;;;;;14.72;68.21;100747.72;1719445;83;21021;-37
2021/05/24 03:21:16;;;;;;;4.40;1.60;;;;;;;14.78;67.86;100752.29;1719322;83;21558;-36
2021/05/24 03:23:42;;;;;;;3.83;1.45;;;;;;;14.83;67.75;100741.73;1719381;83;21498;-37
2021/05/24 03:26:09;;;;;;;2.77;1.27;;;;;;;14.87;67.45;100734.21;1719221;83;20954;-37
2021/05/24 03:28:35;;;;;;;9.00;1.70;;;;;;;14.91;67.14;100733.20;1719222;82;20989;-37
2021/05/24 03:31:02;;;;;;;3.87;1.70;;;;;;;14.96;67.01;100734.81;1719250;83;21081;-37
2021/05/24 03:33:28;;;;;;;3.58;1.77;;;;;;;15.00;67.03;100735.97;1719239;83;20938;-36
2021/05/24 03:35:55;;;;;;;3.75;1.40;;;;;;;15.02;67.25;100735.47;1719293;83;20990;-37
2021/05/24 03:38:21;;;;;;;7.15;1.70;;;;;;;15.05;67.12;100739.74;1719326;83;21017;-37
2021/05/24 03:40:48;;;;;;;1.95;1.67;;;;;;;15.07;67.21;100741.84;1719478;83;20922;-37
2021/05/24 03:43:14;;;;;;;4.75;1.95;;;;;;;15.08;67.07;100733.13;1719352;83;21157;-37
2021/05/24 03:45:41;;;;;;;6.47;1.60;;;;;;;15.08;66.48;100722.69;1719196;83;20978;-36
2021/05/24 03:48:07;;;;;;;3.75;1.70;;;;;;;15.12;66.33;100722.98;1719446;83;21665;-37
2021/05/24 03:50:34;;;;;;;2.17;1.62;;;;;;;15.15;66.34;100718.97;1719397;83;21571;-37
2021/05/24 03:53:02;;;;;;;2.45;1.32;;;;;;;15.16;66.53;100707.64;1719265;82;21090;-37
2021/05/24 03:55:28;;;;;;;4.03;1.45;;;;;;;15.18;66.17;100714.95;1719475;83;21646;-36
2021/05/24 03:57:55;;;;;;;2.62;1.40;;;;;;;15.21;66.32;100720.53;1719424;83;21403;-37
2021/05/24 04:00:22;;;;;;;7.65;1.60;;;;;;;15.21;66.59;100723.14;1719436;82;21539;-37
2021/05/24 04:02:49;;;;;;;3.30;1.52;;;;;;;15.21;66.74;100729.19;1719275;83;21589;-37
2021/05/24 04:05:26;;;;;;;3.72;1.80;;;;;;;15.23;66.47;100729.98;1719410;83;21490;-37
2021/05/24 04:07:53;;;;;;;4.03;1.98;;;;;;;15.27;66.56;100729.88;1718731;83;21844;-37
2021/05/24 04:10:20;;;;;;;8.43;1.85;;;;;;;15.29;66.45;100732.02;1719167;83;20882;-37
2021/05/24 04:12:46;;;;;;;7.40;2.27;;;;;;;15.32;66.65;100733.20;1719328;83;20966;-37
2021/05/24 04:15:15;;;;;;;7.08;2.77;;;;;;;15.34;66.98;100733.54;1719389;83;21048;-37
2021/05/24 04:17:42;;;;;;;3.75;2.45;;;;;;;15.36;67.40;100737.41;1719343;83;20902;-37
2021/05/24 04:20:11;;;;;;;17.73;2.85;;;;;;;15.36;67.66;100725.67;1719234;83;21130;-38
2021/05/24 04:22:40;;;;;;;3.20;1.98;;;;;;;15.36;67.82;100732.20;1719189;83;20969;-38
2021/05/24 04:25:07;;;;;;;7.17;2.87;;;;;;;15.34;68.90;100748.35;1691930;83;20906;-38
2021/05/24 04:27:34;;;;;;;3.75;2.90;;;;;;;15.29;69.46;100751.57;1719229;83;21411;-37
2021/05/24 04:30:01;;;;;;;54.05;5.78;;;;;;;15.22;70.27;100803.90;1719120;82;21005;-38
2021/05/24 04:32:27;;;;;;;24.43;4.72;;;;;;;15.15;71.12;100825.00;1719166;83;21183;-38
2021/05/24 04:34:54;;;;;;;11.73;4.35;;;;;;;15.09;72.30;100829.98;1719328;82;21232;-38
2021/05/24 04:37:21;;;;;;;7.62;4.50;;;;;;;14.97;73.26;100842.94;1719332;83;20993;-38
2021/05/24 04:39:47;;;;;;;8.58;4.45;;;;;;;14.77;73.87;100855.25;1719181;83;21029;-38
2021/05/24 04:42:13;;;;;;;9.45;4.47;;;;;;;14.60;74.33;100855.72;1719350;83;20911;-38
2021/05/24 04:44:40;;;;;;;7.83;4.53;;;;;;;14.47;74.06;100845.66;1719402;83;21084;-39
2021/05/24 04:47:08;;;;;;;9.58;4.53;;;;;;;14.38;74.74;100842.00;1719158;83;21007;-38
2021/05/24 04:49:35;;;;;;;9.35;4.35;;;;;;;14.30;74.96;100853.95;1719261;83;20993;-39
2021/05/24 04:52:02;;;;;;;7.03;4.47;;;;;;;14.24;75.02;100838.48;1719388;83;21037;-39
2021/05/24 04:54:28;;;;;;;11.22;5.05;;;;;;;14.20;75.45;100818.64;1719548;82;21056;-39
2021/05/24 04:56:55;;;;;;;14.60;5.20;;;;;;;14.15;75.78;100815.31;1719510;83;21100;-38
2021/05/24 04:59:22;;;;;;;10.93;4.70;;;;;;;14.10;76.44;100808.92;1719475;82;21009;-38
2021/05/24 05:01:48;;;;;;;14.23;5.30;;;;;;;14.01;77.10;100800.08;1719573;83;20903;-39
2021/05/24 05:04:17;;;;;;;9.38;5.15;;;;;;;13.91;77.42;100792.97;1719472;83;20962;-39
2021/05/24 05:06:43;;;;;;;12.23;5.60;;;;;;;13.84;77.74;100787.53;1718733;83;20993;-39
2021/05/24 05:09:11;;;;;;;16.23;5.80;;;;;;;13.80;78.51;100791.95;1719335;82;21013;-38
2021/05/24 05:11:37;;;;;;;9.58;5.35;;;;;;;13.74;79.30;100795.56;1719425;82;20970;-39
2021/05/24 05:14:04;;;;;;;12.88;4.80;;;;;;;13.72;79.62;100801.25;1719298;83;20930;-38
2021/05/24 05:16:31;;;;;;;12.68;5.42;;;;;;;13.70;80.28;100793.94;1719540;83;21121;-38
2021/05/24 05:18:59;;;;;;;9.60;5.25;;;;;;;13.70;80.68;100792.64;1719457;83;20906;-38
2021/05/24 05:21:25;;;;;;;12.43;5.40;;;;;;;13.72;81.42;100803.85;1719299;83;20998;-38
2021/05/24 05:23:53;;;;;;;7.40;4.20;;;;;;;13.77;82.05;100795.51;1719374;83;21033;-38
2021/05/24 05:26:19;;;;;;;6.25;4.28;;;;;;;13.85;82.31;100799.64;1719378;83;20978;-38
2021/05/24 05:28:46;;;;;;;9.33;4.55;;;;;;;13.91;82.36;100791.66;1719420;82;21026;-38
2021/05/24 05:31:13;;;;;;;7.78;5.15;;;;;;;13.98;82.67;100786.69;1719408;83;20938;-37
2021/05/24 05:33:39;;;;;;;8.50;4.95;;;;;;;14.03;82.92;100784.84;1719451;83;21559;-39
2021/05/24 05:36:06;;;;;;;7.65;4.80;;;;;;;14.06;82.88;100789.95;1719312;83;21689;-39
2021/05/24 05:38:33;;;;;;;11.10;4.83;;;;;;;14.06;82.35;100795.16;1719473;83;20915;-38
2021/05/24 05:41:01;;;;;;;13.45;5.33;;;;;;;14.09;82.09;100787.70;1719273;83;20993;-39
2021/05/24 05:43:28;;;;;;;12.70;5.85;;;;;;;14.10;81.94;100781.59;1719268;83;20961;-38
2021/05/24 05:45:54;;;;;;;8.95;4.97;;;;;;;14.11;81.58;100770.28;1719460;83;21050;-39
2021/05/24 05:48:20;;;;;;;9.70;4.97;;;;;;;14.12;81.58;100778.96;1719325;83;21061;-38
2021/05/24 05:50:47;;;;;;;9.10;5.25;;;;;;;14.14;81.69;100784.98;1719520;83;21559;-39
2021/05/24 05:53:14;;;;;;;13.38;5.50;;;;;;;14.17;81.67;100773.17;1719377;83;20886;-39
2021/05/24 05:55:41;;;;;;;10.70;5.25;;;;;;;14.22;81.99;100781.70;1719314;83;20953;-38
2021/05/24 05:58:07;;;;;;;8.28;4.97;;;;;;;14.25;82.23;100775.09;1719460;83;21068;-38
2021/05/24 06:00:33;;;;;;;9.05;5.20;;;;;;;14.29;82.27;100775.44;1719352;82;20941;-39
2021/05/24 06:03:00;;;;;;;12.65;5.40;;;;;;;14.35;82.61;100772.65;1719458;82;20919;-39
2021/05/24 06:05:26;;;;;;;13.68;5.58;;;;;;;14.38;82.42;100775.59;1719438;83;20930;-39
2021/05/24 06:07:52;;;;;;;11.78;5.60;;;;;;;14.39;82.42;100774.70;1719325;82;20903;-38
2021/05/24 06:10:19;;;;;;;12.40;5.12;;;;;;;14.42;82.58;100785.48;1719413;83;21001;-39
2021/05/24 06:12:47;;;;;;;8.90;4.85;;;;;;;14.42;82.53;100792.00;1719331;83;20930;-39
2021/05/24 06:15:17;;;;;;;10.50;5.40;;;;;;;14.42;82.14;100778.97;1719424;82;21549;-39
2021/05/24 06:17:44;;;;;;;13.95;5.40;;;;;;;14.43;82.22;100780.24;1719370;83;20966;-39
2021/05/24 06:20:12;;;;;;;9.08;5.50;;;;;;;14.42;82.47;100788.09;1719408;83;21575;-40
2021/05/24 06:22:39;;;;;;;10.78;5.40;;;;;;;14.39;82.54;100790.31;1719388;83;21106;-39
2021/05/24 06:25:08;;;;;;;8.40;4.78;;;;;;;14.36;82.71;100799.09;1719239;83;20977;-38
2021/05/24 06:27:34;;;;;;;7.85;5.15;;;;;;;14.32;82.99;100797.91;1719363;83;21423;-39
2021/05/24 06:30:00;;;;;;;13.08;5.72;;;;;;;14.30;83.62;100794.06;1719170;82;21456;-40
2021/05/24 06:32:27;;;;;;;12.18;4.80;;;;;;;14.29;83.99;100791.50;1719288;83;20922;-39
2021/05/24 06:34:53;;;;;;;12.37;4.83;;;;;;;14.27;84.36;100803.70;1719444;83;21677;-39
2021/05/24 06:37:20;;;;;;;8.18;5.15;;;;;;;14.25;84.73;100803.73;1719421;83;20997;-39
2021/05/24 06:39:46;;;;;;;9.13;4.67;;;;;;;14.23;84.94;100788.17;1719394;83;20926;-38
2021/05/24 06:42:13;;;;;;;15.95;5.05;;;;;;;14.19;85.17;100763.13;1719294;83;21022;-39
2021/05/24 06:44:39;;;;;;;12.78;5.20;;;;;;;14.11;85.28;100751.23;1719613;83;20898;-39
2021/05/24 06:47:06;;;;;;;8.73;6.35;;;;;;;14.01;85.72;100771.45;1719283;83;21057;-39
2021/05/24 06:49:35;;;;;;;16.27;6.40;;;;;;;13.96;86.29;100761.63;1719302;83;20906;-38
2021/05/24 06:52:03;;;;;;;15.32;6.05;;;;;;;13.96;86.36;100766.83;1719373;83;20970;-38
2021/05/24 06:54:30;;;;;;;9.00;5.53;;;;;;;13.92;86.70;100773.85;1719246;83;21499;-39
2021/05/24 06:56:58;;;;;;;6.85;5.08;;;;;;;13.92;87.01;100769.52;1719493;83;20966;-39
2021/05/24 06:59:25;;;;;;;16.95;7.05;;;;;;;13.97;87.14;100766.77;1719428;83;21064;-38
2021/05/24 07:01:51;;;;;;;8.45;5.95;;;;;;;14.01;87.53;100764.95;1719390;83;20961;-39
2021/05/24 07:04:17;;;;;;;14.05;5.40;;;;;;;14.05;87.68;100758.32;1719297;83;21052;-39
2021/05/24 07:06:44;;;;;;;18.12;7.92;;;;;;;14.06;87.90;100753.52;1719371;83;21570;-39
2021/05/24 07:09:11;;;;;;;13.75;9.03;;;;;;;14.08;88.30;100762.13;1719170;83;21480;-38
2021/05/24 07:11:38;;;;;;;11.83;6.45;;;;;;;14.09;88.60;100760.37;1719313;83;21089;-38
2021/05/24 07:14:04;;;;;;;16.37;5.15;;;;;;;14.17;88.94;100761.02;1719260;83;20985;-38
2021/05/24 07:16:31;;;;;;;10.90;5.08;;;;;;;14.29;89.17;100761.55;1719309;83;21013;-39
2021/05/24 07:18:58;;;;;;;8.55;4.42;;;;;;;14.40;89.34;100751.69;1719340;83;20887;-38
2021/05/24 07:21:24;;;;;;;8.85;4.55;;;;;;;14.55;89.64;100759.49;1719277;83;20942;-38
2021/05/24 07:23:51;;;;;;;7.17;3.90;;;;;;;14.71;89.66;100749.92;1719396;83;21095;-38
2021/05/24 07:26:17;;;;;;;6.03;4.05;;;;;;;14.83;89.47;100751.29;1719340;83;20985;-38
2021/05/24 07:28:45;;;;;;;8.30;4.30;;;;;;;14.97;89.70;100746.94;1719385;82;21563;-39
2021/05/24 07:31:11;;;;;;;9.70;4.30;;;;;;;15.09;89.08;100738.27;1709277;83;21002;-38
2021/05/24 07:33:37;;;;;;;4.87;3.33;;;;;;;15.23;88.81;100741.72;1705698;84;20915;-39
2021/05/24 07:36:06;;;;;;;5.45;3.52;;;;;;;15.40;88.69;100745.52;1705693;84;20990;-39
2021/05/24 07:38:33;;;;;;;8.53;3.27;;;;;;;15.57;87.86;100720.62;1705721;84;21392;-39
2021/05/24 07:40:59;;;;;;;6.83;3.45;;;;;;;15.65;86.73;100729.02;1705779;84;22201;-38
2021/05/24 07:43:26;;;;;;;7.17;3.45;;;;;;;15.75;86.56;100727.78;1705799;84;21507;-39
2021/05/24 07:45:53;;;;;;;7.78;3.47;;;;;;;15.84;86.11;100728.37;1705714;84;20984;-39
2021/05/24 07:48:20;;;;;;;3.67;2.75;;;;;;;15.89;85.67;100727.78;1705798;84;21101;-39
2021/05/24 07:50:46;;;;;;;6.72;3.90;;;;;;;15.90;84.96;100732.09;1705885;84;20986;-39
2021/05/24 07:53:13;;;;;;;6.33;4.15;;;;;;;15.84;84.14;100727.06;1705853;84;20966;-39
2021/05/24 07:55:39;;;;;;;6.95;4.25;;;;;;;15.74;83.10;100723.94;1705677;84;20996;-39
2021/05/24 07:58:06;;;;;;;10.38;4.10;;;;;;;15.67;83.04;100724.60;1705790;84;20918;-38
2021/05/24 08:00:33;;;;;;;7.92;3.27;;;;;;;15.66;83.03;100719.85;1705769;84;21100;-39
2021/05/24 08:02:59;;;;;;;6.60;2.70;;;;;;;15.62;82.97;100707.80;1705589;83;21484;-38
2021/05/24 08:05:25;;;;;;;8.58;3.52;;;;;;;15.57;83.01;100706.28;1705843;84;21564;-39
2021/05/24 08:07:52;;;;;;;4.85;3.12;;;;;;;15.54;82.99;100722.04;1705805;84;21616;-39
2021/05/24 08:10:21;;;;;;;6.12;3.42;;;;;;;15.50;82.92;100717.38;1705658;83;20982;-39
2021/05/24 08:12:49;;;;;;;7.00;2.92;;;;;;;15.48;82.37;100727.84;1705646;82;20935;-38
2021/05/24 08:15:18;;;;;;;4.58;2.92;;;;;;;15.50;82.87;100721.28;1705765;84;20994;-39
2021/05/24 08:17:45;;;;;;;8.35;3.70;;;;;;;15.55;82.97;100725.05;1705814;84;20947;-39
2021/05/24 08:20:14;;;;;;;8.05;3.35;;;;;;;15.61;82.83;100724.83;1705649;84;21065;-39
2021/05/24 08:22:42;;;;;;;7.72;4.00;;;;;;;15.69;82.58;100723.25;1705758;84;20938;-38
2021/05/24 08:25:10;;;;;;;7.87;4.03;;;;;;;15.80;82.65;100729.80;1705684;82;21666;-39
2021/05/24 08:27:37;;;;;;;7.78;4.12;;;;;;;15.93;82.55;100730.67;1705735;83;21018;-39
2021/05/24 08:30:06;;;;;;;6.67;3.92;;;;;;;16.07;82.50;100727.55;1707317;82;21046;-37
2021/05/24 08:32:33;;;;;;;5.25;3.90;;;;;;;16.32;82.73;100727.94;1719239;83;21089;-40
2021/05/24 08:34:59;;;;;;;8.03;4.60;;;;;;;16.56;80.86;100724.84;1719419;83;20946;-37
2021/05/24 08:37:26;;;;;;;15.83;5.08;;;;;;;16.80;79.52;100707.79;1719375;83;21281;-37
2021/05/24 08:39:52;;;;;;;6.50;4.70;;;;;;;17.05;79.45;100712.88;1719192;82;21029;-38
2021/05/24 08:42:20;;;;;;;14.53;5.05;;;;;;;17.37;78.24;100708.52;1719213;83;21598;-39
2021/05/24 08:46:09;;;;;;;13.85;4.92;;;;;;;17.78;76.57;100700.59;1776453;79;22565;-38
2021/05/24 08:48:36;;;;;;;8.65;4.37;;;;;;;17.94;76.22;100698.61;1749293;82;20985;-38
2021/05/24 08:51:06;;;;;;;9.60;5.05;;;;;;;18.12;74.42;100690.39;1749198;82;21693;-38
2021/05/24 08:53:38;;;;;;;11.63;4.85;;;;;;;18.38;73.68;100685.25;1748908;81;20914;-38
2021/05/24 08:56:06;;;;;;;9.15;4.50;;;;;;;18.72;72.13;100681.91;1720470;82;20899;-38
2021/05/24 08:58:32;;;;;;;14.58;4.22;;;;;;;18.95;71.60;100684.24;1749108;82;21570;-38
2021/05/24 09:00:59;;;;;;;9.13;4.53;;;;;;;19.10;70.34;100680.02;1749112;80;20894;-38
2021/05/24 09:03:29;;;;;;;11.93;4.33;;;;;;;19.17;70.02;100674.01;1749061;82;21069;-38
2021/05/24 09:05:55;;;;;;;5.22;3.60;;;;;;;19.14;68.65;100671.99;1749032;81;20902;-38
2021/05/24 09:08:41;;;;;;;8.15;4.30;;;;;;;19.17;69.00;100663.96;1748941;82;20934;-37
2021/05/24 09:11:30;;;;;;;4.63;3.80;;;;;;;19.13;68.52;100667.23;1749219;82;20958;-38
2021/05/24 09:13:58;;;;;;;13.45;4.53;;;;;;;19.07;68.24;100675.38;1748970;82;20914;-38
2021/05/24 09:16:33;;;;;;;5.78;4.05;;;;;;;18.96;68.15;100666.74;1749022;82;22200;-38
2021/05/24 09:19:12;;;;;;;;;;;;;;;18.90;67.36;100669.66;1751548;80;20907;-38
2021/05/24 09:21:39;;;;;;;7.85;3.67;;;;;;;18.94;67.70;100666.81;1749012;82;20200;-38
2021/05/24 09:24:31;;;;;;;9.03;3.80;;;;;;;19.22;68.17;100639.67;1748818;82;21575;-38
2021/05/24 09:27:00;;;;;;;6.30;3.47;;;;;;;19.63;67.48;100635.78;1749203;80;21321;-38
2021/05/24 09:29:29;;;;;;;8.10;3.65;;;;;;;19.97;66.04;100633.97;1736381;82;21183;-39
2021/05/24 09:32:24;;;;;;;4.47;3.05;;;;;;;19.98;65.50;100646.66;1717143;83;20898;-39
2021/05/24 09:34:50;;;;;;;3.65;2.85;;;;;;;19.95;64.05;100644.55;1719266;82;20887;-38
2021/05/24 09:37:18;;;;;;;18.17;3.40;;;;;;;19.85;63.02;100648.59;1719184;83;21812;-38
2021/05/24 09:39:44;;;;;;;4.85;2.77;;;;;;;19.84;64.03;100646.89;1719174;82;20957;-38
2021/05/24 09:42:13;;;;;;;10.03;2.72;;;;;;;19.89;64.32;100647.97;1719276;83;21081;-38
2021/05/24 09:44:57;;;;;;;9.78;3.00;;;;;;;19.85;64.00;100638.56;1715832;83;20970;-38
2021/05/24 09:47:38;;;;;;;8.25;2.70;;;;;;;19.66;64.20;100631.20;1705709;83;21540;-38
2021/05/24 09:50:17;;;;;;;6.12;2.90;;;;;;;19.57;65.01;100637.41;1706333;84;20982;-38
2021/05/24 09:52:44;;;;;;;6.42;2.95;;;;;;;19.52;65.56;100642.44;1706551;84;20979;-38
2021/05/24 09:55:19;;;;;;;6.00;2.98;;;;;;;19.52;65.34;100633.25;1706394;83;21076;-39
2021/05/24 09:58:01;;;;;;;9.53;3.02;;;;;;;19.42;65.53;100626.81;1705994;83;20935;-38
2021/05/24 10:03:10;;;;;;;6.45;3.25;;;;;;;19.22;66.49;100630.48;1695871;84;21050;-39
2021/05/24 10:05:45;;;;;;;11.20;3.42;;;;;;;19.20;66.62;100628.41;1705916;84;21472;-39
2021/05/24 10:08:12;;;;;;;11.38;3.52;;;;;;;19.26;67.20;100620.21;1705832;84;21026;-38
2021/05/24 10:10:40;;;;;;;5.53;2.85;;;;;;;19.35;67.60;100618.41;1705837;84;21002;-39
2021/05/24 10:13:07;;;;;;;4.00;3.20;;;;;;;19.34;67.04;100610.15;1705872;84;21015;-39
2021/05/24 10:15:43;;;;;;;4.35;3.08;;;;;;;19.26;66.95;100600.98;1706051;84;20915;-39
2021/05/24 10:18:11;;;;;;;4.67;3.50;;;;;;;19.14;67.19;100604.64;1706185;84;21006;-39
2021/05/24 10:20:38;;;;;;;5.92;3.17;;;;;;;19.04;67.46;100596.85;1705871;84;21078;-39
2021/05/24 10:23:04;;;;;;;4.20;3.20;;;;;;;18.96;67.98;100595.45;1705790;84;21563;-39
2021/05/24 10:25:33;;;;;;;8.95;3.00;;;;;;;18.94;68.21;100590.75;1705883;84;20957;-39
2021/05/24 10:28:00;;;;;;;4.10;3.40;;;;;;;18.95;68.56;100587.20;1663458;84;20907;-39
2021/05/24 10:30:26;;;;;;;7.92;3.20;;;;;;;18.92;68.73;100574.25;1706027;82;21065;-39
2021/05/24 10:32:56;;;;;;;6.03;3.40;;;;;;;18.83;69.18;100586.98;1705912;84;21059;-40
2021/05/24 10:35:37;;;;;;;10.58;4.12;;;;;;;18.67;70.11;100617.89;1705781;84;21053;-42
2021/05/24 10:38:32;;;;;;;19.27;4.00;;;;;;;18.36;73.21;100666.13;1705812;84;21006;-40
2021/05/24 10:41:09;;;;;;;13.65;4.45;;;;;;;17.55;75.86;100696.84;1706208;84;20891;-39
2021/05/24 10:43:42;;;;;;;8.33;2.58;;;;;;;15.93;74.71;100654.97;1705952;84;20907;-39
2021/05/24 10:46:31;;;;;;;17.67;3.40;;;;;;;14.71;78.24;100661.33;1705692;83;21111;-39
2021/05/24 10:49:07;;;;;;;5.05;1.95;;;;;;;14.41;84.66;100638.81;1705910;84;20950;-39
2021/05/24 10:51:52;;;;;;;2.15;1.90;;;;;;;14.06;88.11;100628.59;1704809;83;20954;-39
2021/05/24 10:54:29;;;;;;;3.52;2.60;;;;;;;13.95;89.56;100629.34;1705777;84;21543;-40
2021/05/24 10:57:05;;;;;;;4.08;2.60;;;;;;;14.17;91.30;100619.15;1705970;84;21010;-38
2021/05/24 10:59:45;;;;;;;3.30;2.17;;;;;;;14.61;92.59;100619.93;1705965;84;21096;-38
2021/05/24 11:02:19;;;;;;;9.03;2.70;;;;;;;15.09;92.95;100609.22;1705774;83;21030;-39
2021/05/24 11:05:08;;;;;;;9.03;2.90;;;;;;;15.39;93.02;100605.59;1703315;82;21590;-39
2021/05/24 11:07:44;;;;;;;3.02;1.87;;;;;;;15.66;92.87;100593.30;1638974;87;21038;-38
2021/05/24 11:10:23;;;;;;;6.05;2.00;;;;;;;15.98;93.22;100590.38;1705535;83;21050;-39
2021/05/24 11:13:12;;;;;;;13.00;2.20;;;;;;;16.29;93.39;100582.63;1705794;83;21080;-38
2021/05/24 11:15:42;;;;;;;7.35;2.40;;;;;;;16.71;93.71;100583.56;1705842;84;20856;-39
2021/05/24 11:18:13;;;;;;;2.37;1.90;;;;;;;17.32;94.40;100588.84;1705857;83;20978;-40
2021/05/24 11:20:48;;;;;;;5.15;1.72;;;;;;;17.78;93.65;100585.41;1705757;83;21658;-40
2021/05/24 11:23:36;;;;;;;3.12;1.70;;;;;;;18.09;92.59;100586.63;1671839;85;21559;-38
2021/05/24 11:26:38;;;;;;;7.22;2.20;;;;;;;18.33;91.47;100588.98;1667041;86;21972;-38
2021/05/24 11:29:16;;;;;;;5.75;2.72;;;;;;;18.31;90.37;100585.56;1667050;84;21062;-40
2021/05/24 11:31:50;;;;;;;5.53;2.45;;;;;;;18.14;89.53;100581.15;1667100;86;21058;-39
2021/05/24 11:34:36;;;;;;;2.33;2.10;;;;;;;18.00;88.87;100576.55;1666676;86;21002;-39
2021/05/24 11:37:09;;;;;;;2.83;2.52;;;;;;;17.86;88.71;100581.12;1667335;86;21041;-38